Time;durP1;ratioP1;P1;durP2;ratioP2;P2;SDS_P1;SDS_P2;PMS_P1;PMS_P2;Temp;Humidity;BMP_temperature;BMP_pressure;BME280_temperature;BME280_humidity;BME280_pressure;Samples;Min_cycle;Max_cycle;Signal;HPM_P1;HPM_P2
2023/10/26 00:01:02;;;;;;;26.95;17.70;;;;;;;9.15;100.00;99678.81;4925982;29;20218;-48
2023/10/26 00:03:28;;;;;;;20.08;15.75;;;;;;;9.21;100.00;99667.81;4929691;29;20261;-47
2023/10/26 00:05:53;;;;;;;22.50;17.13;;;;;;;9.20;100.00;99675.88;4926018;29;20207;-48
2023/10/26 00:08:19;;;;;;;20.45;16.80;;;;;;;9.20;100.00;99665.19;4925043;29;20286;-49
2023/10/26 00:10:46;;;;;;;25.33;17.02;;;;;;;9.23;100.00;99667.72;4926477;29;20196;-47
2023/10/26 00:13:11;;;;;;;23.00;17.05;;;;;;;9.20;100.00;99676.75;4924603;29;20207;-46
2023/10/26 00:15:37;;;;;;;25.92;18.45;;;;;;;9.15;100.00;99673.47;4923371;29;20294;-47
2023/10/26 00:18:03;;;;;;;28.70;19.15;;;;;;;9.17;100.00;99670.72;4924011;29;20266;-47
2023/10/26 00:20:28;;;;;;;27.85;18.95;;;;;;;9.15;100.00;99670.78;4923626;29;20187;-47
2023/10/26 00:22:54;;;;;;;28.85;18.90;;;;;;;9.16;100.00;99669.84;4925125;29;20211;-49
2023/10/26 00:25:19;;;;;;;26.42;18.50;;;;;;;9.17;100.00;99676.06;4922251;29;20704;-46
2023/10/26 00:27:45;;;;;;;24.77;18.73;;;;;;;9.19;100.00;99669.69;4923700;29;20213;-47
2023/10/26 00:30:11;;;;;;;27.75;19.73;;;;;;;9.16;100.00;99671.63;4929217;29;20355;-46
2023/10/26 00:32:37;;;;;;;32.30;20.75;;;;;;;9.16;100.00;99674.31;4929476;29;20625;-47
2023/10/26 00:35:03;;;;;;;29.92;20.27;;;;;;;9.16;100.00;99669.84;4922410;29;20590;-47
2023/10/26 00:37:30;;;;;;;24.20;18.52;;;;;;;9.19;100.00;99663.50;4924734;29;20187;-47
2023/10/26 00:39:55;;;;;;;32.92;20.33;;;;;;;9.16;100.00;99663.63;4938398;29;20187;-47
2023/10/26 00:42:21;;;;;;;25.30;19.13;;;;;;;9.19;100.00;99667.00;4920535;29;20192;-48
2023/10/26 00:44:46;;;;;;;26.75;19.00;;;;;;;9.17;100.00;99654.69;4924077;29;20317;-47
2023/10/26 00:47:14;;;;;;;27.83;18.60;;;;;;;9.18;100.00;99651.94;4921814;29;20647;-47
2023/10/26 00:49:43;;;;;;;30.10;20.30;;;;;;;9.18;100.00;99672.44;4931054;29;20306;-48
2023/10/26 00:52:10;;;;;;;33.28;21.67;;;;;;;9.17;100.00;99665.38;4923140;29;20279;-47
2023/10/26 00:54:40;;;;;;;29.20;21.23;;;;;;;9.16;100.00;99660.94;4930198;29;20223;-47
2023/10/26 00:57:06;;;;;;;28.33;20.52;;;;;;;9.16;100.00;99658.28;4928637;29;20585;-47
2023/10/26 00:59:32;;;;;;;28.02;19.75;;;;;;;9.16;100.00;99656.50;4923755;29;20184;-47
2023/10/26 01:02:01;;;;;;;27.23;19.05;;;;;;;9.13;100.00;99643.28;4928958;29;20186;-47
2023/10/26 01:04:26;;;;;;;27.33;20.10;;;;;;;9.13;100.00;99653.09;4924669;29;20218;-47
2023/10/26 01:06:53;;;;;;;35.53;23.20;;;;;;;9.11;100.00;99660.34;4919972;29;20184;-46
2023/10/26 01:09:19;;;;;;;35.10;22.25;;;;;;;9.08;100.00;99656.88;4924558;29;20210;-47
2023/10/26 01:11:46;;;;;;;28.48;20.40;;;;;;;9.11;100.00;99655.00;4938439;28;20585;-47
2023/10/26 01:14:11;;;;;;;31.92;21.70;;;;;;;9.11;100.00;99652.31;4923244;29;20663;-47
2023/10/26 01:16:37;;;;;;;30.05;21.23;;;;;;;9.12;100.00;99654.03;4926200;29;20253;-47
2023/10/26 01:19:03;;;;;;;35.53;23.02;;;;;;;9.11;100.00;99652.31;4923909;29;20213;-46
2023/10/26 01:21:46;;;;;;;30.45;22.20;;;;;;;9.10;100.00;99645.25;4924274;29;20195;-47
2023/10/26 01:24:12;;;;;;;35.97;24.35;;;;;;;9.06;100.00;99652.56;4921354;29;20244;-47
2023/10/26 01:26:40;;;;;;;26.85;19.23;;;;;;;9.09;100.00;99644.38;4923964;29;20219;-47
2023/10/26 01:29:06;;;;;;;34.08;23.55;;;;;;;9.08;100.00;99651.53;4920362;29;20281;-47
2023/10/26 01:31:31;;;;;;;37.00;23.77;;;;;;;9.03;100.00;99647.34;4910670;29;20184;-47
2023/10/26 01:33:57;;;;;;;33.17;22.83;;;;;;;9.07;100.00;99652.50;4923332;29;20266;-47
2023/10/26 01:36:23;;;;;;;32.08;22.77;;;;;;;9.02;100.00;99646.50;4923663;29;20207;-47
2023/10/26 01:38:48;;;;;;;36.25;22.88;;;;;;;9.02;100.00;99641.16;4927884;29;20218;-47
2023/10/26 01:41:14;;;;;;;32.13;22.45;;;;;;;8.96;100.00;99641.44;4921206;29;20223;-47
2023/10/26 01:43:39;;;;;;;35.63;22.75;;;;;;;8.96;100.00;99646.78;4923514;29;20242;-47
2023/10/26 01:46:05;;;;;;;31.45;22.45;;;;;;;8.92;100.00;99639.03;4936226;28;20203;-47
2023/10/26 01:48:31;;;;;;;33.80;21.70;;;;;;;8.90;100.00;99641.78;4922575;29;20206;-47
2023/10/26 01:50:57;;;;;;;31.90;20.83;;;;;;;8.93;100.00;99644.28;4920995;29;20725;-46
2023/10/26 01:53:23;;;;;;;33.95;22.45;;;;;;;8.99;100.00;99644.00;4921794;29;20231;-47
2023/10/26 01:55:49;;;;;;;31.48;21.83;;;;;;;9.01;100.00;99642.09;4926447;29;20672;-48
2023/10/26 01:58:15;;;;;;;32.53;20.95;;;;;;;8.97;100.00;99643.19;4927627;29;20267;-46
2023/10/26 02:00:41;;;;;;;27.63;20.75;;;;;;;8.90;100.00;99633.78;4932011;29;20312;-47
2023/10/26 02:03:07;;;;;;;26.17;18.70;;;;;;;8.92;100.00;99645.25;4927733;29;20195;-47
2023/10/26 02:05:32;;;;;;;26.77;18.13;;;;;;;8.91;100.00;99632.81;4926010;29;20212;-46
2023/10/26 02:07:58;;;;;;;23.00;16.90;;;;;;;8.89;100.00;99634.69;4928066;29;20630;-46
2023/10/26 02:10:29;;;;;;;26.35;18.25;;;;;;;8.88;100.00;99627.66;4926354;29;20531;-47
2023/10/26 02:12:55;;;;;;;24.48;17.33;;;;;;;8.85;100.00;99630.44;4926211;29;20534;-47
2023/10/26 02:15:21;;;;;;;23.10;16.42;;;;;;;8.79;100.00;99623.63;4924664;29;20202;-48
2023/10/26 02:17:46;;;;;;;21.75;14.05;;;;;;;8.83;100.00;99618.97;4931460;29;20188;-47
2023/10/26 02:20:12;;;;;;;21.33;14.32;;;;;;;8.83;100.00;99621.66;4926290;29;20255;-47
2023/10/26 02:22:38;;;;;;;21.67;14.88;;;;;;;8.82;100.00;99623.47;4926113;29;20195;-47
2023/10/26 02:25:04;;;;;;;16.30;12.80;;;;;;;8.87;100.00;99632.09;4921978;29;20203;-47
2023/10/26 02:27:31;;;;;;;20.52;13.93;;;;;;;8.84;100.00;99624.25;4932233;29;20659;-48
2023/10/26 02:29:56;;;;;;;22.98;13.05;;;;;;;8.82;100.00;99627.94;4932373;29;20210;-47
2023/10/26 02:32:22;;;;;;;17.45;12.90;;;;;;;8.84;100.00;99618.91;4923496;29;20196;-46
2023/10/26 02:34:48;;;;;;;14.80;11.70;;;;;;;8.86;100.00;99609.03;4925843;29;20200;-46
2023/10/26 02:37:15;;;;;;;14.77;11.40;;;;;;;8.87;100.00;99631.25;4921857;28;20175;-48
2023/10/26 02:39:40;;;;;;;16.92;11.80;;;;;;;8.86;100.00;99624.19;4928661;29;20180;-47
2023/10/26 02:42:06;;;;;;;12.30;10.23;;;;;;;8.84;100.00;99616.25;4924214;29;20603;-48
2023/10/26 02:44:31;;;;;;;16.27;11.98;;;;;;;8.80;100.00;99622.69;4928198;29;20271;-48
2023/10/26 02:46:57;;;;;;;11.27;9.15;;;;;;;8.86;100.00;99626.84;4912582;29;20196;-47
2023/10/26 02:49:23;;;;;;;11.60;8.88;;;;;;;8.90;100.00;99609.75;4926256;29;20323;-48
2023/10/26 02:51:49;;;;;;;13.25;8.52;;;;;;;8.95;100.00;99612.16;4924694;29;20282;-47
2023/10/26 02:54:15;;;;;;;10.80;7.78;;;;;;;8.96;100.00;99619.22;4924302;29;20195;-47
2023/10/26 02:56:40;;;;;;;8.52;7.65;;;;;;;8.98;100.00;99623.53;4925021;29;20188;-48
2023/10/26 02:59:07;;;;;;;10.32;8.43;;;;;;;8.99;100.00;99614.59;4926912;29;20187;-48
2023/10/26 03:01:33;;;;;;;9.57;8.30;;;;;;;9.06;100.00;99617.81;4923763;29;20278;-48
2023/10/26 03:04:01;;;;;;;10.52;7.75;;;;;;;9.14;100.00;99612.94;4926702;29;20184;-47
2023/10/26 03:06:27;;;;;;;11.18;7.85;;;;;;;9.19;100.00;99605.56;4925003;29;20207;-47
2023/10/26 03:08:52;;;;;;;12.82;7.18;;;;;;;9.25;100.00;99620.41;4924149;29;20223;-47
2023/10/26 03:11:18;;;;;;;8.77;7.25;;;;;;;9.25;100.00;99615.06;4923522;29;20620;-48
2023/10/26 03:13:43;;;;;;;9.20;7.28;;;;;;;9.25;100.00;99607.06;4925351;29;20187;-47
2023/10/26 03:16:09;;;;;;;9.90;7.53;;;;;;;9.29;100.00;99611.25;4925050;29;20251;-46
2023/10/26 03:18:37;;;;;;;8.43;6.90;;;;;;;9.31;100.00;99609.38;4929170;29;20182;-47
2023/10/26 03:21:04;;;;;;;9.02;6.72;;;;;;;9.32;100.00;99605.78;4931239;29;20199;-46
2023/10/26 03:23:29;;;;;;;7.20;5.85;;;;;;;9.37;100.00;99600.19;4927810;29;20620;-47
2023/10/26 03:25:55;;;;;;;9.38;5.28;;;;;;;9.42;100.00;99600.78;4926534;29;20235;-47
2023/10/26 03:28:20;;;;;;;7.57;5.45;;;;;;;9.45;100.00;99611.34;4925059;29;20207;-46
2023/10/26 03:30:46;;;;;;;6.45;5.05;;;;;;;9.45;100.00;99616.69;4927598;29;20171;-46
2023/10/26 03:33:11;;;;;;;6.07;4.65;;;;;;;9.45;100.00;99612.19;4927853;29;20241;-45
2023/10/26 03:35:37;;;;;;;6.80;4.30;;;;;;;9.48;100.00;99612.03;4930888;29;20267;-46
2023/10/26 03:38:02;;;;;;;6.30;4.38;;;;;;;9.45;100.00;99606.84;4929189;29;20215;-47
2023/10/26 03:40:31;;;;;;;9.57;4.90;;;;;;;9.42;100.00;99617.72;4928420;29;20192;-47
2023/10/26 03:42:56;;;;;;;5.65;3.53;;;;;;;9.47;100.00;99606.78;4925488;29;20297;-45
2023/10/26 03:45:26;;;;;;;4.70;3.58;;;;;;;9.45;100.00;99609.53;4925198;29;20671;-46
2023/10/26 03:47:52;;;;;;;5.90;3.80;;;;;;;9.53;100.00;99609.09;4928405;29;20207;-46
2023/10/26 03:50:18;;;;;;;5.35;3.47;;;;;;;9.52;100.00;99606.53;4927838;29;20552;-45
2023/10/26 03:52:44;;;;;;;6.85;3.97;;;;;;;9.57;100.00;99607.13;4931128;29;20508;-46
2023/10/26 03:55:10;;;;;;;9.48;3.63;;;;;;;9.54;100.00;99613.53;4930828;29;20195;-45
2023/10/26 03:57:35;;;;;;;7.50;3.60;;;;;;;9.58;100.00;99609.75;4927174;29;20187;-46
2023/10/26 04:00:03;;;;;;;6.18;3.15;;;;;;;9.55;100.00;99609.03;4928295;29;20733;-46
2023/10/26 04:02:37;;;;;;;9.43;2.92;;;;;;;9.54;100.00;99601.97;4925265;29;20179;-46
2023/10/26 04:05:04;;;;;;;5.82;2.78;;;;;;;9.60;100.00;99609.63;4926530;29;20947;-46
2023/10/26 04:07:29;;;;;;;7.38;2.70;;;;;;;9.59;100.00;99606.09;4926163;29;20330;-46
2023/10/26 04:09:55;;;;;;;3.88;2.53;;;;;;;9.53;100.00;99605.56;4929717;29;20298;-46
2023/10/26 04:12:20;;;;;;;5.85;2.30;;;;;;;9.53;100.00;99602.91;4931258;29;20200;-46
2023/10/26 04:14:46;;;;;;;3.92;2.60;;;;;;;9.54;100.00;99600.16;4925977;29;20211;-46
2023/10/26 04:17:12;;;;;;;8.15;2.35;;;;;;;9.55;100.00;99601.00;4924413;29;20180;-45
2023/10/26 04:19:38;;;;;;;4.07;1.88;;;;;;;9.50;100.00;99609.28;4925385;29;20198;-46
2023/10/26 04:22:05;;;;;;;4.60;1.88;;;;;;;9.51;100.00;99594.09;4926110;29;20179;-46
2023/10/26 04:24:32;;;;;;;4.68;2.05;;;;;;;9.49;100.00;99604.88;4925717;29;20212;-46
2023/10/26 04:26:57;;;;;;;4.20;2.30;;;;;;;9.49;100.00;99599.53;4930499;29;20203;-47
2023/10/26 04:29:23;;;;;;;2.80;1.80;;;;;;;9.50;100.00;99614.63;4928693;29;20203;-45
2023/10/26 04:31:48;;;;;;;4.93;2.30;;;;;;;9.54;100.00;99610.00;4926467;29;20246;-46
2023/10/26 04:34:15;;;;;;;5.18;2.78;;;;;;;9.52;100.00;99599.38;4925330;29;20705;-47
2023/10/26 04:36:40;;;;;;;3.85;2.60;;;;;;;9.56;100.00;99602.75;4920344;29;20557;-46
2023/10/26 04:39:08;;;;;;;3.85;2.63;;;;;;;9.54;100.00;99602.81;4928266;29;20205;-45
2023/10/26 04:41:33;;;;;;;2.63;2.42;;;;;;;9.53;100.00;99602.91;4926402;29;20234;-46
2023/10/26 04:43:59;;;;;;;4.82;2.40;;;;;;;9.53;100.00;99603.75;4924305;29;20179;-45
2023/10/26 04:46:24;;;;;;;1.73;1.60;;;;;;;9.48;100.00;99595.97;4923294;29;20285;-46
2023/10/26 04:48:50;;;;;;;5.22;2.13;;;;;;;9.55;100.00;99606.34;4925082;29;20559;-46
2023/10/26 04:51:15;;;;;;;8.27;2.25;;;;;;;9.51;100.00;99599.44;4929287;29;20658;-46
2023/10/26 04:53:41;;;;;;;4.05;1.95;;;;;;;9.51;100.00;99607.47;4923570;29;20214;-46
2023/10/26 04:56:06;;;;;;;2.15;1.70;;;;;;;9.53;100.00;99594.88;4926147;29;20210;-46
2023/10/26 04:58:32;;;;;;;5.45;2.35;;;;;;;9.52;100.00;99603.84;4928816;29;20199;-46
2023/10/26 05:00:59;;;;;;;2.72;1.75;;;;;;;9.49;100.00;99605.75;4925343;29;20234;-46
2023/10/26 05:03:25;;;;;;;4.28;1.85;;;;;;;9.51;100.00;99604.78;4922651;29;20804;-47
2023/10/26 05:05:52;;;;;;;4.32;1.75;;;;;;;9.52;100.00;99599.38;4926645;29;20262;-45
2023/10/26 05:08:17;;;;;;;2.10;1.50;;;;;;;9.52;100.00;99607.38;4923312;29;20290;-47
2023/10/26 05:10:44;;;;;;;5.35;1.42;;;;;;;9.59;100.00;99605.25;4923931;29;20282;-47
2023/10/26 05:13:10;;;;;;;4.10;1.75;;;;;;;9.56;100.00;99602.75;4924452;29;20275;-45
2023/10/26 05:15:36;;;;;;;2.58;1.42;;;;;;;9.56;100.00;99608.09;4924612;29;20668;-47
2023/10/26 05:18:03;;;;;;;6.47;1.55;;;;;;;9.58;100.00;99601.72;4921906;29;20267;-47
2023/10/26 05:20:30;;;;;;;3.30;1.40;;;;;;;9.56;100.00;99603.59;4922179;29;20569;-47
2023/10/26 05:22:56;;;;;;;2.10;1.42;;;;;;;9.53;100.00;99603.75;4924149;29;20621;-45
2023/10/26 05:25:21;;;;;;;2.92;1.30;;;;;;;9.59;100.00;99591.88;4925170;29;20287;-47
2023/10/26 05:27:47;;;;;;;2.45;1.40;;;;;;;9.60;100.00;99599.81;4925329;29;20234;-47
2023/10/26 05:30:13;;;;;;;2.45;1.38;;;;;;;9.52;100.00;99603.84;4924754;29;20205;-46
2023/10/26 05:32:39;;;;;;;4.10;1.55;;;;;;;9.45;100.00;99588.13;4924721;29;20191;-46
2023/10/26 05:35:05;;;;;;;2.53;1.10;;;;;;;9.44;100.00;99599.75;4926496;29;20523;-46
2023/10/26 05:37:31;;;;;;;1.58;1.10;;;;;;;9.45;100.00;99598.84;4926784;29;20537;-47
2023/10/26 05:39:57;;;;;;;1.45;0.88;;;;;;;9.50;100.00;99598.59;4928583;29;20278;-48
2023/10/26 05:42:22;;;;;;;2.00;0.98;;;;;;;9.49;100.00;99599.53;4932441;29;20203;-46
2023/10/26 05:44:47;;;;;;;2.78;1.30;;;;;;;9.45;100.00;99604.19;4931880;29;20274;-46
2023/10/26 05:47:15;;;;;;;3.60;1.05;;;;;;;9.41;100.00;99591.91;4928926;29;20195;-47
2023/10/26 05:49:41;;;;;;;4.22;1.33;;;;;;;9.44;100.00;99590.88;4931946;29;20258;-47
2023/10/26 05:52:06;;;;;;;2.60;1.05;;;;;;;9.45;100.00;99597.97;4926679;29;20597;-47
2023/10/26 05:54:32;;;;;;;4.80;1.00;;;;;;;9.44;100.00;99599.75;4925365;29;20187;-46
2023/10/26 05:56:57;;;;;;;4.78;1.30;;;;;;;9.43;100.00;99598.06;4929940;29;20270;-47
2023/10/26 05:59:23;;;;;;;1.33;1.00;;;;;;;9.41;100.00;99599.94;4930784;29;20179;-45
2023/10/26 06:01:48;;;;;;;4.82;2.35;;;;;;;9.42;100.00;99604.34;4927357;29;20262;-45
2023/10/26 06:04:14;;;;;;;0.75;0.75;;;;;;;9.38;100.00;99602.78;4926933;29;20180;-46
2023/10/26 06:06:39;;;;;;;0.68;0.55;;;;;;;9.37;100.00;99602.84;4930401;29;20211;-45
2023/10/26 06:09:05;;;;;;;2.97;0.90;;;;;;;9.34;100.00;99603.88;4928806;29;20210;-46
2023/10/26 06:11:30;;;;;;;0.85;0.85;;;;;;;9.33;100.00;99612.84;4927434;29;20238;-46
2023/10/26 06:13:56;;;;;;;2.40;1.30;;;;;;;9.30;100.00;99602.31;4929503;29;20642;-46
2023/10/26 06:16:21;;;;;;;4.22;0.95;;;;;;;9.38;100.00;99610.81;4927256;29;20211;-46
2023/10/26 06:18:47;;;;;;;3.63;0.93;;;;;;;9.31;100.00;99620.06;4925522;29;20180;-46
2023/10/26 06:21:13;;;;;;;2.97;0.98;;;;;;;9.31;100.00;99621.88;4929819;29;20195;-46
2023/10/26 06:23:38;;;;;;;1.38;0.95;;;;;;;9.30;100.00;99620.16;4931588;29;20214;-45
2023/10/26 06:26:04;;;;;;;1.05;0.80;;;;;;;9.33;100.00;99620.84;4924766;29;20200;-47
2023/10/26 06:28:30;;;;;;;2.22;0.75;;;;;;;9.27;100.00;99627.41;4927135;29;20229;-46
2023/10/26 06:31:08;;;;;;;2.40;0.93;;;;;;;9.27;100.00;99630.06;4929220;29;21023;-46
2023/10/26 06:33:33;;;;;;;4.03;1.20;;;;;;;9.28;100.00;99625.59;4925956;29;20183;-48
2023/10/26 06:35:59;;;;;;;1.02;0.93;;;;;;;9.34;100.00;99627.94;4927203;29;20227;-47
2023/10/26 06:38:25;;;;;;;2.55;0.85;;;;;;;9.27;100.00;99638.09;4928276;29;20246;-47
2023/10/26 06:40:51;;;;;;;5.57;1.10;;;;;;;9.25;100.00;99628.44;4928630;29;20278;-49
2023/10/26 06:43:16;;;;;;;2.03;0.90;;;;;;;9.23;100.00;99627.66;4926927;29;20653;-47
2023/10/26 06:45:41;;;;;;;1.23;0.82;;;;;;;9.25;100.00;99637.31;4928094;29;20745;-47
2023/10/26 06:48:08;;;;;;;2.35;0.82;;;;;;;9.24;100.00;99630.22;4927928;29;20191;-47
2023/10/26 06:50:33;;;;;;;6.57;0.80;;;;;;;9.20;100.00;99639.34;4929766;29;20662;-48
2023/10/26 06:52:59;;;;;;;3.20;0.70;;;;;;;9.19;100.00;99626.94;4925592;29;20192;-47
2023/10/26 06:55:24;;;;;;;5.53;1.10;;;;;;;9.20;100.00;99638.47;4924596;29;20285;-47
2023/10/26 06:57:50;;;;;;;2.05;0.80;;;;;;;9.16;100.00;99632.44;4927742;29;20194;-46
2023/10/26 07:00:17;;;;;;;3.45;1.30;;;;;;;9.17;100.00;99633.31;4928813;29;20188;-46
2023/10/26 07:02:42;;;;;;;2.08;0.98;;;;;;;9.24;100.00;99637.38;4928558;29;20187;-46
2023/10/26 07:05:08;;;;;;;1.73;1.00;;;;;;;9.14;100.00;99639.69;4927741;29;20204;-47
2023/10/26 07:07:36;;;;;;;3.03;1.00;;;;;;;9.12;100.00;99644.22;4922841;29;20183;-48
2023/10/26 07:10:02;;;;;;;2.58;1.50;;;;;;;9.08;100.00;99651.53;4927415;29;20211;-47
2023/10/26 07:12:28;;;;;;;1.67;1.08;;;;;;;9.12;100.00;99648.69;4927845;29;20190;-46
2023/10/26 07:14:54;;;;;;;3.72;1.45;;;;;;;9.12;100.00;99648.69;4926868;29;20207;-47
2023/10/26 07:17:20;;;;;;;5.03;1.55;;;;;;;9.10;100.00;99656.81;4925954;29;20534;-47
2023/10/26 07:19:46;;;;;;;3.78;1.60;;;;;;;9.07;100.00;99646.25;4929263;29;20190;-47
2023/10/26 07:22:11;;;;;;;2.65;1.70;;;;;;;9.12;100.00;99648.69;4929219;29;20180;-47
2023/10/26 07:24:37;;;;;;;2.00;1.50;;;;;;;9.12;100.00;99654.03;4925528;29;20207;-48
2023/10/26 07:27:03;;;;;;;2.85;1.80;;;;;;;9.11;100.00;99650.50;4926344;29;20239;-46
2023/10/26 07:29:29;;;;;;;8.75;1.60;;;;;;;9.12;100.00;99654.03;4930487;29;20200;-47
2023/10/26 07:31:55;;;;;;;5.13;1.48;;;;;;;9.15;100.00;99657.41;4929932;29;20183;-47
2023/10/26 07:34:20;;;;;;;5.32;1.15;;;;;;;9.15;100.00;99662.78;4929014;29;20215;-47
2023/10/26 07:36:46;;;;;;;3.95;1.23;;;;;;;9.17;100.00;99662.69;4930697;29;20266;-48
2023/10/26 07:39:11;;;;;;;4.47;1.48;;;;;;;9.22;100.00;99664.19;4929574;29;20616;-47
2023/10/26 07:41:37;;;;;;;5.03;1.10;;;;;;;9.22;100.00;99666.84;4929704;29;20179;-47
2023/10/26 07:44:02;;;;;;;6.53;1.25;;;;;;;9.23;100.00;99673.94;4930076;29;20706;-47
2023/10/26 07:46:28;;;;;;;3.88;0.93;;;;;;;9.30;100.00;99677.16;4928793;29;20206;-47
2023/10/26 07:48:53;;;;;;;5.20;1.20;;;;;;;9.20;100.00;99670.53;4923702;29;20560;-48
2023/10/26 07:51:18;;;;;;;4.72;1.27;;;;;;;9.16;100.00;99668.97;4926091;29;20184;-47
2023/10/26 07:53:44;;;;;;;3.45;1.20;;;;;;;9.21;100.00;99674.97;4928787;29;20196;-47
2023/10/26 07:56:10;;;;;;;5.85;1.70;;;;;;;9.24;100.00;99675.66;4918504;29;20328;-46
2023/10/26 07:58:35;;;;;;;5.03;1.70;;;;;;;9.30;100.00;99678.97;4919545;29;20269;-48
2023/10/26 08:01:10;;;;;;;1.50;1.13;;;;;;;9.23;100.00;99673.94;4923442;29;20188;-47
2023/10/26 08:03:35;;;;;;;1.40;1.05;;;;;;;9.32;100.00;99672.59;4925267;29;20249;-46
2023/10/26 08:06:02;;;;;;;2.35;1.48;;;;;;;9.30;100.00;99671.81;4924243;29;20218;-47
2023/10/26 08:08:29;;;;;;;4.85;1.83;;;;;;;9.27;100.00;99677.28;4926287;29;20227;-47
2023/10/26 08:10:56;;;;;;;1.90;1.25;;;;;;;9.24;100.00;99681.00;4925408;29;20270;-47
2023/10/26 08:13:22;;;;;;;2.78;1.40;;;;;;;9.23;100.00;99670.41;4922920;29;20195;-46
2023/10/26 08:15:48;;;;;;;4.57;1.63;;;;;;;9.26;100.00;99675.59;4922872;29;20229;-47
2023/10/26 08:18:13;;;;;;;10.00;1.70;;;;;;;9.23;100.00;99675.75;4922498;29;20572;-45
2023/10/26 08:20:40;;;;;;;5.10;1.95;;;;;;;9.29;100.00;99675.41;4911818;29;20187;-47
2023/10/26 08:23:05;;;;;;;4.15;1.52;;;;;;;9.30;100.00;99682.50;4926425;29;20192;-47
2023/10/26 08:25:37;;;;;;;6.95;1.80;;;;;;;9.28;100.00;99684.38;4924310;29;21032;-46
2023/10/26 08:28:03;;;;;;;4.97;1.95;;;;;;;9.26;100.00;99683.59;4923879;29;20187;-47
2023/10/26 08:30:29;;;;;;;3.67;1.70;;;;;;;9.32;100.00;99688.63;4925445;29;20274;-47
2023/10/26 08:32:56;;;;;;;6.40;1.73;;;;;;;9.34;100.00;99692.09;4924300;29;20271;-47
2023/10/26 08:35:22;;;;;;;3.28;1.50;;;;;;;9.31;100.00;99697.59;4922448;29;20528;-47
2023/10/26 08:37:47;;;;;;;2.13;1.48;;;;;;;9.35;100.00;99693.81;4926421;29;20719;-47
2023/10/26 08:40:13;;;;;;;4.18;1.58;;;;;;;9.36;100.00;99686.66;4920904;29;20219;-48
2023/10/26 08:42:39;;;;;;;2.78;1.40;;;;;;;9.33;100.00;99692.16;4926422;29;20262;-48
2023/10/26 08:45:19;;;;;;;3.53;1.70;;;;;;;9.39;100.00;99684.69;4923947;29;20202;-47
2023/10/26 08:47:47;;;;;;;3.33;1.40;;;;;;;9.51;100.00;99695.69;4922390;29;20619;-47
2023/10/26 08:50:14;;;;;;;4.68;1.33;;;;;;;9.44;100.00;99690.66;4914989;29;20211;-45
2023/10/26 08:52:43;;;;;;;1.40;0.90;;;;;;;9.52;100.00;99692.09;4922228;29;20627;-47
2023/10/26 08:55:08;;;;;;;3.25;1.23;;;;;;;9.63;100.00;99692.38;4924239;29;20203;-46
2023/10/26 08:57:48;;;;;;;2.75;0.88;;;;;;;9.53;100.00;99696.47;4924553;29;20508;-47
2023/10/26 09:00:15;;;;;;;0.40;0.40;;;;;;;9.57;100.00;99700.72;4928056;29;20185;-47
2023/10/26 09:02:41;;;;;;;0.52;0.40;;;;;;;9.58;100.00;99697.97;4923490;29;20213;-46
2023/10/26 09:05:08;;;;;;;2.47;0.63;;;;;;;9.62;100.00;99701.34;4920636;29;20655;-46
2023/10/26 09:07:34;;;;;;;1.30;0.40;;;;;;;9.42;100.00;99702.38;4929522;29;20187;-47
2023/10/26 09:10:01;;;;;;;1.48;0.40;;;;;;;9.43;100.00;99698.78;4925474;29;20562;-47
2023/10/26 09:12:26;;;;;;;0.25;0.20;;;;;;;9.42;100.00;99689.91;4923428;29;20718;-49
2023/10/26 09:15:06;;;;;;;1.15;0.50;;;;;;;9.39;100.00;99695.38;4938551;28;20215;-48
2023/10/26 09:17:32;;;;;;;1.60;0.40;;;;;;;9.33;100.00;99689.50;4925349;29;20191;-47
2023/10/26 09:20:13;;;;;;;4.75;0.52;;;;;;;9.36;100.00;99692.00;4924799;29;20179;-47
2023/10/26 09:22:41;;;;;;;1.33;0.22;;;;;;;9.34;100.00;99696.59;4923419;29;20560;-47
2023/10/26 09:25:12;;;;;;;0.30;0.30;;;;;;;9.41;100.00;99688.16;4929986;29;20224;-47
2023/10/26 09:27:39;;;;;;;3.03;0.40;;;;;;;9.45;100.00;99689.72;4927415;29;20188;-47
2023/10/26 09:30:05;;;;;;;1.50;0.60;;;;;;;9.43;100.00;99688.94;4925182;29;20561;-49
2023/10/26 09:32:35;;;;;;;3.17;0.45;;;;;;;9.37;100.00;99691.94;4922652;29;20662;-47
2023/10/26 09:35:01;;;;;;;2.97;0.75;;;;;;;9.35;100.00;99701.84;4923876;29;20256;-47
2023/10/26 09:37:27;;;;;;;1.92;0.60;;;;;;;9.37;100.00;99699.94;4921532;29;20676;-47
2023/10/26 09:39:53;;;;;;;1.23;0.60;;;;;;;9.34;100.00;99702.78;4926924;29;20175;-47
2023/10/26 09:42:19;;;;;;;2.30;0.65;;;;;;;9.38;100.00;99699.03;4927070;29;20866;-47
2023/10/26 09:44:46;;;;;;;2.40;0.65;;;;;;;9.42;100.00;99703.28;4924315;29;20204;-47
2023/10/26 09:47:12;;;;;;;1.88;0.68;;;;;;;9.42;100.00;99707.72;4921830;29;20619;-49
2023/10/26 09:49:38;;;;;;;3.03;0.70;;;;;;;9.47;100.00;99719.94;4924652;29;20203;-48
2023/10/26 09:52:04;;;;;;;3.28;0.80;;;;;;;9.40;100.00;99712.28;4924140;29;20188;-47
2023/10/26 09:54:35;;;;;;;3.88;0.90;;;;;;;9.40;100.00;99693.56;4923334;29;20192;-47
2023/10/26 09:57:10;;;;;;;2.55;0.80;;;;;;;9.47;100.00;99700.34;4924247;29;20187;-47
2023/10/26 09:59:37;;;;;;;5.55;0.75;;;;;;;9.37;100.00;99699.94;4925388;29;20334;-48
2023/10/26 10:02:16;;;;;;;4.25;0.88;;;;;;;9.36;100.00;99702.69;4926687;29;20515;-47
2023/10/26 10:04:44;;;;;;;1.00;0.75;;;;;;;9.45;100.00;99703.09;4923938;29;20360;-47
2023/10/26 10:07:16;;;;;;;1.83;0.43;;;;;;;9.35;100.00;99706.31;4923301;29;20665;-45
2023/10/26 10:10:04;;;;;;;2.67;0.63;;;;;;;9.35;100.00;99701.84;4924491;29;20742;-46
2023/10/26 10:12:31;;;;;;;1.52;0.43;;;;;;;9.44;100.00;99700.50;4922123;29;20195;-48
2023/10/26 10:14:58;;;;;;;2.05;0.68;;;;;;;9.55;100.00;99699.94;4921832;29;20227;-47
2023/10/26 10:17:55;;;;;;;3.25;0.68;;;;;;;9.57;100.00;99701.59;4925242;29;20714;-47
2023/10/26 10:20:21;;;;;;;1.92;0.90;;;;;;;9.54;100.00;99695.56;4907747;29;20227;-46
2023/10/26 10:22:48;;;;;;;1.05;0.63;;;;;;;9.49;100.00;99693.13;4928542;29;20215;-46
2023/10/26 10:25:17;;;;;;;4.32;0.90;;;;;;;9.49;100.00;99702.00;4926982;29;20207;-45
2023/10/26 10:27:48;;;;;;;3.60;0.95;;;;;;;9.42;100.00;99692.56;4928136;29;20192;-48
2023/10/26 10:30:21;;;;;;;1.27;0.80;;;;;;;9.46;100.00;99691.44;4927824;29;20497;-46
2023/10/26 10:32:48;;;;;;;2.10;0.90;;;;;;;9.47;100.00;99689.66;4926439;29;20207;-46
2023/10/26 10:35:35;;;;;;;3.47;0.98;;;;;;;9.52;100.00;99692.09;4926144;29;20203;-46
2023/10/26 10:38:13;;;;;;;1.95;0.80;;;;;;;9.53;100.00;99693.81;4926817;29;20193;-47
2023/10/26 10:40:54;;;;;;;4.15;1.02;;;;;;;9.39;100.00;99694.53;4926713;29;21342;-48
2023/10/26 10:43:45;;;;;;;1.80;0.65;;;;;;;9.38;100.00;99685.66;4925221;29;20235;-46
2023/10/26 10:46:18;;;;;;;2.88;0.60;;;;;;;9.38;100.00;99691.00;4924965;29;20573;-47
2023/10/26 10:49:03;;;;;;;2.28;0.63;;;;;;;9.36;100.00;99692.00;4927056;29;20219;-46
2023/10/26 10:51:33;;;;;;;1.45;0.65;;;;;;;9.26;100.00;99681.78;4926702;29;20270;-47
2023/10/26 10:54:01;;;;;;;2.83;1.00;;;;;;;9.36;100.00;99673.28;4927719;29;20195;-47
2023/10/26 10:56:26;;;;;;;1.73;0.90;;;;;;;9.47;100.00;99689.66;4926289;28;20224;-47
2023/10/26 10:58:52;;;;;;;3.17;1.00;;;;;;;9.38;100.00;99684.75;4930663;29;20193;-46
2023/10/26 11:01:22;;;;;;;2.65;0.82;;;;;;;9.45;100.00;99695.06;4925481;29;20195;-46
2023/10/26 11:03:48;;;;;;;2.25;0.80;;;;;;;9.31;100.00;99692.25;4926380;29;20312;-46
2023/10/26 11:06:16;;;;;;;4.38;0.80;;;;;;;9.32;100.00;99685.09;4924309;29;20677;-48
2023/10/26 11:08:41;;;;;;;2.55;0.80;;;;;;;9.31;100.00;99696.72;4931375;29;20356;-47
2023/10/26 11:11:07;;;;;;;3.92;0.93;;;;;;;9.22;100.00;99682.03;4928459;29;20657;-48
2023/10/26 11:13:32;;;;;;;2.00;0.90;;;;;;;9.39;100.00;99686.50;4931254;29;20191;-46
2023/10/26 11:15:58;;;;;;;2.28;0.70;;;;;;;9.36;100.00;99681.31;4926803;29;20207;-46
2023/10/26 11:18:23;;;;;;;5.18;1.00;;;;;;;9.35;100.00;99679.59;4922979;29;20312;-45
2023/10/26 11:20:49;;;;;;;5.43;1.08;;;;;;;9.36;100.00;99678.63;4926795;29;20191;-46
2023/10/26 11:23:19;;;;;;;3.70;0.90;;;;;;;9.28;100.00;99685.25;4931669;29;20293;-46
2023/10/26 11:25:45;;;;;;;3.53;1.10;;;;;;;9.38;100.00;99680.31;4927482;28;20203;-47
2023/10/26 11:28:10;;;;;;;2.17;0.85;;;;;;;9.23;100.00;99684.63;4925810;29;20191;-46